createdAt,value
2018-09-01T00:01:12.179Z,70.04
2018-09-01T00:03:40.216Z,70.02
2018-09-01T00:06:08.310Z,70.00
2018-09-01T00:08:36.348Z,70.10
2018-09-01T00:11:04.398Z,70.30
2018-09-01T00:13:32.446Z,70.70
2018-09-01T00:16:00.495Z,70.67
2018-09-01T00:18:28.547Z,70.61
2018-09-01T00:20:56.579Z,71.10
2018-09-01T00:23:24.644Z,71.45
2018-09-01T00:25:52.683Z,71.01
2018-09-01T00:28:20.751Z,70.92
2018-09-01T00:30:48.805Z,71.44
2018-09-01T00:33:16.929Z,71.67
2018-09-01T00:35:44.947Z,72.06
2018-09-01T00:38:18.324Z,71.95
2018-09-01T00:40:46.375Z,71.81
2018-09-01T00:43:14.415Z,71.92
2018-09-01T00:45:42.462Z,72.23
2018-09-01T00:48:10.498Z,72.54
2018-09-01T00:50:38.543Z,73.16
2018-09-01T00:53:06.596Z,73.77
2018-09-01T00:55:34.640Z,73.41
2018-09-01T00:58:03.160Z,73.87
2018-09-01T01:00:31.204Z,73.76
2018-09-01T01:02:59.235Z,74.19
2018-09-01T01:05:27.272Z,74.18
2018-09-01T01:07:55.316Z,73.93
2018-09-01T01:10:23.392Z,74.38
2018-09-01T01:12:51.440Z,74.28
2018-09-01T01:15:19.894Z,74.17
2018-09-01T01:17:47.942Z,74.46
2018-09-01T01:20:15.979Z,74.35
2018-09-01T01:22:44.031Z,74.76
2018-09-01T01:25:12.102Z,74.68
2018-09-01T01:27:40.155Z,74.65
2018-09-01T01:30:08.202Z,74.60
2018-09-01T01:32:36.555Z,74.60
2018-09-01T01:35:04.956Z,75.10
2018-09-01T01:37:34.761Z,75.15
2018-09-01T01:40:03.688Z,75.54
2018-09-01T01:42:31.747Z,76.09
2018-09-01T01:44:59.783Z,76.10
2018-09-01T01:47:27.822Z,76.20
2018-09-01T01:49:55.911Z,76.49
2018-09-01T01:52:24.034Z,77.01
2018-09-01T01:54:52.071Z,77.05
2018-09-01T01:57:20.128Z,77.44
2018-09-01T01:59:48.195Z,77.50
2018-09-01T02:02:16.219Z,78.77
2018-09-01T02:04:44.280Z,78.67
2018-09-01T02:07:12.318Z,78.89
2018-09-01T02:09:40.392Z,78.85
2018-09-01T02:12:08.421Z,78.92
2018-09-01T02:14:36.572Z,78.80
2018-09-01T02:17:04.611Z,78.67
2018-09-01T02:19:32.668Z,78.68
2018-09-01T02:22:00.707Z,78.81
2018-09-01T02:24:28.823Z,78.88
2018-09-01T02:26:56.848Z,78.85
2018-09-01T02:29:24.903Z,79.31
2018-09-01T02:31:52.960Z,79.43
2018-09-01T02:34:20.992Z,79.90
2018-09-01T02:36:49.008Z,79.36
2018-09-01T02:39:17.032Z,79.69
2018-09-01T02:41:45.075Z,79.87
2018-09-01T02:44:13.098Z,79.89
2018-09-01T02:46:41.137Z,79.82
2018-09-01T02:49:09.187Z,79.65
2018-09-01T02:51:37.227Z,79.71
2018-09-01T02:54:05.271Z,80.45
2018-09-01T02:56:33.331Z,80.49
2018-09-01T02:59:01.372Z,79.93
2018-09-01T03:01:34.677Z,80.29
2018-09-01T03:04:02.706Z,80.46
2018-09-01T03:06:42.082Z,80.12
2018-09-01T03:09:10.150Z,80.49
2018-09-01T03:11:38.201Z,80.57
2018-09-01T03:14:06.304Z,80.62
2018-09-01T03:16:34.447Z,80.49
2018-09-01T03:19:02.503Z,80.64
2018-09-01T03:21:30.600Z,80.89
2018-09-01T03:23:58.671Z,81.07
2018-09-01T03:26:26.698Z,80.80
2018-09-01T03:28:54.743Z,80.69
2018-09-01T03:31:22.791Z,80.96
2018-09-01T03:33:50.849Z,80.61
2018-09-01T03:36:18.902Z,80.75
2018-09-01T03:38:46.932Z,80.65
2018-09-01T03:41:14.989Z,81.30
2018-09-01T03:43:43.136Z,80.99
2018-09-01T03:46:11.310Z,80.58
2018-09-01T03:48:39.728Z,80.86
2018-09-01T03:51:07.763Z,81.75
2018-09-01T03:53:35.871Z,81.46
2018-09-01T03:56:03.925Z,80.32
2018-09-01T03:58:32.007Z,80.73
2018-09-01T04:01:00.051Z,80.52
2018-09-01T04:03:28.063Z,80.89
2018-09-01T04:05:56.330Z,80.62
2018-09-01T04:08:24.395Z,81.16
2018-09-01T04:10:52.458Z,81.27
2018-09-01T04:13:20.500Z,81.25
2018-09-01T04:15:48.681Z,81.21
2018-09-01T04:18:16.711Z,81.21
2018-09-01T04:20:44.788Z,81.84
2018-09-01T04:23:12.842Z,81.58
2018-09-01T04:25:40.899Z,82.18
2018-09-01T04:28:08.983Z,81.72
2018-09-01T04:30:37.068Z,81.27
2018-09-01T04:33:05.378Z,80.57
2018-09-01T04:35:33.419Z,80.69
2018-09-01T04:38:01.492Z,80.42
2018-09-01T04:40:29.592Z,81.12
2018-09-01T04:42:57.676Z,81.16
2018-09-01T04:45:25.723Z,81.16
2018-09-01T04:47:53.780Z,80.46
2018-09-01T04:50:21.878Z,81.19
2018-09-01T04:52:49.992Z,80.92
2018-09-01T04:55:18.035Z,81.64
2018-09-01T04:57:46.090Z,81.96
2018-09-01T05:00:19.603Z,81.79
2018-09-01T05:02:47.641Z,80.28
2018-09-01T05:05:15.679Z,79.46
2018-09-01T05:07:43.883Z,79.37
2018-09-01T05:10:11.983Z,78.55
2018-09-01T05:12:40.092Z,77.79
2018-09-01T05:15:10.260Z,76.92
2018-09-01T05:17:38.310Z,75.51
2018-09-01T05:20:06.420Z,75.08
2018-09-01T05:22:34.467Z,74.00
2018-09-01T05:25:02.607Z,72.72
2018-09-01T05:27:31.148Z,71.59
2018-09-01T05:29:59.196Z,70.56
2018-09-01T05:32:27.291Z,70.30
2018-09-01T05:34:55.366Z,68.84
2018-09-01T05:39:57.796Z,66.49
2018-09-01T05:42:25.890Z,64.04
2018-09-01T05:44:53.930Z,64.43
2018-09-01T05:47:21.976Z,61.86
2018-09-01T05:49:50.028Z,61.44
2018-09-01T05:52:18.106Z,61.39
2018-09-01T05:54:46.168Z,58.34
2018-09-01T05:57:14.227Z,59.05
2018-09-01T05:59:42.258Z,58.72
2018-09-01T06:02:10.324Z,57.78
2018-09-01T06:04:38.359Z,56.67
2018-09-01T06:07:06.453Z,54.25
2018-09-01T06:09:34.480Z,53.75
2018-09-01T06:12:02.541Z,52.29
2018-09-01T06:14:30.591Z,54.22
2018-09-01T06:16:58.632Z,52.35
2018-09-01T06:19:26.679Z,51.37
2018-09-01T06:21:54.699Z,52.47
2018-09-01T06:24:22.837Z,51.50
2018-09-01T06:26:50.875Z,49.96
2018-09-01T06:29:19.787Z,50.06
2018-09-01T06:31:52.804Z,48.43
2018-09-01T06:34:20.985Z,49.52
2018-09-01T06:36:49.744Z,47.49
2018-09-01T06:39:17.860Z,45.64
2018-09-01T06:41:45.920Z,46.79
2018-09-01T06:44:13.968Z,47.06
2018-09-01T06:46:42.127Z,45.81
2018-09-01T06:49:10.195Z,46.13
2018-09-01T06:51:38.269Z,43.60
2018-09-01T06:54:06.418Z,43.62
2018-09-01T06:56:34.452Z,44.23
2018-09-01T06:59:02.535Z,43.27
2018-09-01T07:01:30.568Z,42.92
2018-09-01T07:03:58.648Z,42.76
2018-09-01T07:06:26.700Z,41.71
2018-09-01T07:08:54.789Z,42.31
2018-09-01T07:11:22.799Z,39.31
2018-09-01T07:13:50.892Z,39.81
2018-09-01T07:16:18.924Z,41.30
2018-09-01T07:18:47.005Z,39.79
2018-09-01T07:21:15.081Z,40.88
2018-09-01T07:23:43.140Z,38.11
2018-09-01T07:26:11.199Z,40.26
2018-09-01T07:28:39.259Z,39.80
2018-09-01T07:31:07.732Z,38.98
2018-09-01T07:33:35.429Z,37.95
2018-09-01T07:36:03.470Z,37.97
2018-09-01T07:38:31.614Z,38.86
2018-09-01T07:40:59.642Z,36.91
2018-09-01T07:43:27.714Z,37.26
2018-09-01T07:45:55.747Z,37.77
2018-09-01T07:48:23.799Z,37.27
2018-09-01T07:50:51.895Z,38.40
2018-09-01T07:53:19.952Z,37.03
2018-09-01T07:55:47.986Z,39.93
2018-09-01T07:58:16.116Z,39.51
2018-09-01T08:00:44.196Z,40.53
2018-09-01T08:03:13.309Z,38.24
2018-09-01T08:05:41.373Z,38.82
2018-09-01T08:08:09.390Z,39.63
2018-09-01T08:10:37.423Z,39.16
2018-09-01T08:13:06.180Z,38.41
2018-09-01T08:15:34.231Z,38.20
2018-09-01T08:18:02.283Z,39.49
2018-09-01T08:20:30.331Z,41.32
2018-09-01T08:22:58.480Z,41.15
2018-09-01T08:25:26.583Z,42.42
2018-09-01T08:27:54.655Z,42.39
2018-09-01T08:30:22.972Z,43.70
2018-09-01T08:32:51.778Z,44.68
2018-09-01T08:35:19.872Z,44.06
2018-09-01T08:37:47.921Z,44.96
2018-09-01T08:40:16.114Z,44.83
2018-09-01T08:42:44.162Z,43.73
2018-09-01T08:45:12.292Z,44.04
2018-09-01T08:47:40.309Z,43.54
2018-09-01T08:50:08.421Z,42.79
2018-09-01T08:52:36.519Z,41.88
2018-09-01T08:55:04.637Z,42.27
2018-09-01T08:57:32.701Z,41.96
2018-09-01T09:00:00.809Z,43.75
2018-09-01T09:02:28.843Z,44.17
2018-09-01T09:04:56.917Z,44.91
2018-09-01T09:07:24.961Z,47.00
2018-09-01T09:09:53.027Z,48.67
2018-09-01T09:12:21.067Z,49.18
2018-09-01T09:14:49.122Z,49.76
2018-09-01T09:17:17.171Z,49.83
2018-09-01T09:19:45.286Z,48.63
2018-09-01T09:22:13.435Z,48.62
2018-09-01T09:24:41.532Z,47.07
2018-09-01T09:27:09.643Z,46.67
2018-09-01T09:29:37.734Z,45.15
2018-09-01T09:32:05.838Z,45.85
2018-09-01T09:34:34.043Z,46.50
2018-09-01T09:37:02.463Z,47.08
2018-09-01T09:39:30.780Z,46.50
2018-09-01T09:41:58.914Z,47.39
2018-09-01T09:44:27.064Z,46.17
2018-09-01T09:46:55.124Z,46.48
2018-09-01T09:49:23.295Z,45.79
2018-09-01T09:51:51.336Z,46.01
2018-09-01T09:54:19.401Z,45.98
2018-09-01T09:56:47.472Z,46.75
2018-09-01T09:59:15.644Z,47.54
2018-09-01T10:01:43.786Z,47.58
2018-09-01T10:04:12.636Z,47.91
2018-09-01T10:06:41.010Z,48.33
2018-09-01T10:09:11.964Z,48.80
2018-09-01T10:11:40.732Z,49.89
2018-09-01T10:14:08.754Z,49.36
2018-09-01T10:16:36.796Z,51.00
2018-09-01T10:19:04.918Z,49.94
2018-09-01T10:21:33.132Z,49.49
2018-09-01T10:24:01.184Z,48.91
2018-09-01T10:26:29.304Z,48.57
2018-09-01T10:28:57.354Z,48.09
2018-09-01T10:31:25.463Z,47.91
2018-09-01T10:33:53.771Z,48.03
2018-09-01T10:36:21.828Z,48.95
2018-09-01T10:38:49.931Z,49.23
2018-09-01T10:41:18.083Z,48.57
2018-09-01T10:43:46.190Z,47.92
2018-09-01T10:46:14.256Z,48.40
2018-09-01T10:48:42.999Z,48.15
2018-09-01T10:51:11.076Z,48.06
2018-09-01T10:53:39.201Z,47.95
2018-09-01T10:56:07.405Z,47.49
2018-09-01T10:58:35.447Z,46.85
2018-09-01T11:01:03.495Z,47.55
2018-09-01T11:03:31.558Z,47.65
2018-09-01T11:06:03.525Z,45.96
2018-09-01T11:08:31.863Z,45.71
2018-09-01T11:10:59.907Z,45.48
2018-09-01T11:13:28.006Z,45.67
2018-09-01T11:15:56.115Z,45.04
2018-09-01T11:18:24.160Z,43.83
2018-09-01T11:20:52.326Z,43.14
2018-09-01T11:23:20.319Z,44.76
2018-09-01T11:25:48.420Z,44.69
2018-09-01T11:28:16.471Z,43.39
2018-09-01T11:30:44.525Z,43.82
2018-09-01T11:33:12.760Z,44.11
2018-09-01T11:35:40.823Z,43.73
2018-09-01T11:38:09.000Z,42.89
2018-09-01T11:40:37.020Z,42.62
2018-09-01T11:43:05.298Z,42.79
2018-09-01T11:45:33.155Z,42.73
2018-09-01T11:48:01.214Z,42.11
2018-09-01T11:50:29.292Z,42.36
2018-09-01T11:52:57.327Z,42.01
2018-09-01T11:55:25.359Z,41.60
2018-09-01T11:57:53.409Z,42.27
2018-09-01T12:00:21.527Z,41.66
2018-09-01T12:02:49.800Z,40.82
2018-09-01T12:05:17.898Z,40.87
2018-09-01T12:07:45.963Z,41.63
2018-09-01T12:10:14.089Z,42.05
2018-09-01T12:12:42.156Z,42.67
2018-09-01T12:15:10.167Z,42.85
2018-09-01T12:17:38.207Z,42.57
2018-09-01T12:20:06.308Z,42.49
2018-09-01T12:22:34.376Z,42.52
2018-09-01T12:25:02.427Z,42.56
2018-09-01T12:27:30.471Z,42.50
2018-09-01T12:29:58.507Z,43.46
2018-09-01T12:32:26.564Z,43.47
2018-09-01T12:34:54.695Z,43.36
2018-09-01T12:37:22.774Z,42.75
2018-09-01T12:39:50.799Z,42.93
2018-09-01T12:42:19.042Z,41.28
2018-09-01T12:44:47.097Z,40.33
2018-09-01T12:47:15.182Z,39.50
2018-09-01T12:49:43.247Z,39.94
2018-09-01T12:52:11.310Z,39.27
2018-09-01T12:54:39.366Z,39.21
2018-09-01T12:57:07.418Z,39.56
2018-09-01T12:59:35.463Z,37.52
2018-09-01T13:02:03.804Z,38.23
2018-09-01T13:04:31.853Z,37.46
2018-09-01T13:06:59.903Z,36.68
2018-09-01T13:09:27.957Z,37.91
2018-09-01T13:11:56.006Z,37.16
2018-09-01T13:14:24.248Z,39.90
2018-09-01T13:16:52.779Z,40.59
2018-09-01T13:19:20.840Z,41.47
2018-09-01T13:21:48.913Z,42.05
2018-09-01T13:24:16.997Z,42.74
2018-09-01T13:26:45.054Z,44.19
2018-09-01T13:29:13.086Z,43.96
2018-09-01T13:31:41.191Z,44.58
2018-09-01T13:34:09.385Z,44.14
2018-09-01T13:36:37.507Z,43.99
2018-09-01T13:39:06.998Z,44.54
2018-09-01T13:41:34.968Z,44.42
2018-09-01T13:44:03.044Z,43.79
2018-09-01T13:46:31.147Z,44.45
2018-09-01T13:48:59.212Z,44.92
2018-09-01T13:51:27.326Z,44.18
2018-09-01T13:53:55.375Z,44.30
2018-09-01T13:56:23.543Z,44.65
2018-09-01T13:58:51.624Z,43.42
2018-09-01T14:01:19.727Z,42.89
2018-09-01T14:03:47.827Z,42.25
2018-09-01T14:06:15.885Z,43.43
2018-09-01T14:08:44.038Z,42.30
2018-09-01T14:11:12.111Z,42.05
2018-09-01T14:13:40.144Z,42.41
2018-09-01T14:16:08.180Z,42.32
2018-09-01T14:18:36.281Z,41.52
2018-09-01T14:21:04.362Z,39.57
2018-09-01T14:23:32.371Z,39.66
2018-09-01T14:26:00.414Z,38.16
2018-09-01T14:28:28.475Z,39.16
2018-09-01T14:30:56.528Z,39.21
2018-09-01T14:33:24.612Z,39.24
2018-09-01T14:35:52.767Z,39.93
2018-09-01T14:38:20.988Z,39.20
2018-09-01T14:40:49.125Z,40.32
2018-09-01T14:43:17.274Z,39.39
2018-09-01T14:45:45.332Z,39.93
2018-09-01T14:48:13.380Z,39.06
2018-09-01T14:50:41.452Z,39.70
2018-09-01T14:53:10.220Z,39.86
2018-09-01T14:55:38.273Z,39.68
2018-09-01T14:58:06.336Z,39.80
2018-09-01T15:00:34.457Z,39.66
2018-09-01T15:03:03.615Z,39.03
2018-09-01T15:05:31.917Z,38.71
2018-09-01T15:08:00.360Z,38.99
2018-09-01T15:10:28.620Z,39.12
2018-09-01T15:12:56.928Z,39.27
2018-09-01T15:15:25.135Z,39.36
2018-09-01T15:17:54.395Z,38.72
2018-09-01T15:20:22.999Z,38.70
2018-09-01T15:22:52.578Z,38.92
2018-09-01T15:25:20.990Z,38.64
2018-09-01T15:27:49.312Z,38.46
2018-09-01T15:30:17.714Z,38.64
2018-09-01T15:32:46.552Z,38.09
2018-09-01T15:35:15.005Z,38.56
2018-09-01T15:37:43.052Z,38.34
2018-09-01T15:40:11.236Z,38.97
2018-09-01T15:42:39.305Z,38.99
2018-09-01T15:45:07.402Z,39.80
2018-09-01T15:47:35.580Z,41.58
2018-09-01T15:50:03.684Z,43.30
2018-09-01T15:52:31.736Z,43.50
2018-09-01T15:54:59.771Z,43.58
2018-09-01T15:57:27.805Z,43.38
2018-09-01T15:59:55.985Z,43.80
2018-09-01T16:02:24.003Z,43.23
2018-09-01T16:04:52.065Z,42.44
2018-09-01T16:07:20.122Z,42.63
2018-09-01T16:09:49.556Z,42.71
2018-09-01T16:12:17.623Z,42.87
2018-09-01T16:14:45.685Z,43.83
2018-09-01T16:17:13.731Z,44.29
2018-09-01T16:19:41.807Z,44.07
2018-09-01T16:22:09.946Z,44.13
2018-09-01T16:24:38.040Z,44.57
2018-09-01T16:27:06.063Z,43.36
2018-09-01T16:29:34.091Z,43.37
2018-09-01T16:32:02.342Z,43.65
2018-09-01T16:34:30.412Z,44.33
2018-09-01T16:36:58.412Z,43.63
2018-09-01T16:39:26.912Z,43.75
2018-09-01T16:41:54.964Z,44.37
2018-09-01T16:44:23.020Z,44.39
2018-09-01T16:46:51.050Z,44.17
2018-09-01T16:49:19.122Z,44.09
2018-09-01T16:51:47.232Z,44.89
2018-09-01T16:54:15.300Z,45.17
2018-09-01T16:56:43.384Z,45.37
2018-09-01T16:59:11.443Z,45.80
2018-09-01T17:01:39.471Z,46.84
2018-09-01T17:04:07.674Z,47.01
2018-09-01T17:06:35.700Z,47.80
2018-09-01T17:09:04.249Z,48.69
2018-09-01T17:11:32.315Z,49.68
2018-09-01T17:14:00.341Z,49.46
2018-09-01T17:16:28.411Z,50.38
2018-09-01T17:18:56.436Z,50.65
2018-09-01T17:21:24.496Z,50.57
2018-09-01T17:23:52.552Z,50.70
2018-09-01T17:26:20.675Z,50.45
2018-09-01T17:28:48.723Z,51.05
2018-09-01T17:31:16.785Z,51.33
2018-09-01T17:33:44.898Z,51.15
2018-09-01T17:36:12.895Z,51.02
2018-09-01T17:38:41.033Z,51.52
2018-09-01T17:41:09.139Z,51.90
2018-09-01T17:43:37.175Z,51.20
2018-09-01T17:46:05.617Z,52.04
2018-09-01T17:48:33.927Z,52.22
2018-09-01T17:51:01.997Z,52.44
2018-09-01T17:53:30.048Z,53.35
2018-09-01T17:55:58.105Z,53.25
2018-09-01T17:58:26.145Z,53.77
2018-09-01T18:00:54.231Z,54.38
2018-09-01T18:03:22.526Z,54.00
2018-09-01T18:05:50.653Z,54.54
2018-09-01T18:08:18.692Z,54.44
2018-09-01T18:10:46.760Z,54.40
2018-09-01T18:13:14.820Z,55.51
2018-09-01T18:15:42.866Z,55.53
2018-09-01T18:18:10.896Z,55.04
2018-09-01T18:20:41.257Z,55.37
2018-09-01T18:23:09.457Z,55.80
2018-09-01T18:25:37.443Z,56.45
2018-09-01T18:28:05.590Z,56.55
2018-09-01T18:30:33.629Z,57.30
2018-09-01T18:33:01.686Z,57.71
2018-09-01T18:35:29.752Z,57.36
2018-09-01T18:37:58.573Z,57.64
2018-09-01T18:40:26.668Z,57.91
2018-09-01T18:42:54.762Z,57.47
2018-09-01T18:45:23.775Z,58.12
2018-09-01T18:47:51.832Z,58.46
2018-09-01T18:50:19.912Z,58.92
2018-09-01T18:52:47.995Z,59.33
2018-09-01T18:55:16.933Z,58.88
2018-09-01T18:57:44.995Z,59.68
2018-09-01T19:00:14.535Z,59.61
2018-09-01T19:02:42.672Z,59.65
2018-09-01T19:05:10.788Z,60.41
2018-09-01T19:07:38.878Z,60.97
2018-09-01T19:10:08.167Z,60.35
2018-09-01T19:12:36.225Z,60.08
2018-09-01T19:15:05.424Z,59.89
2018-09-01T19:17:33.468Z,60.50
2018-09-01T19:20:01.573Z,61.24
2018-09-01T19:22:29.818Z,60.87
2018-09-01T19:24:57.917Z,61.24
2018-09-01T19:27:25.963Z,61.66
2018-09-01T19:29:55.769Z,61.52
2018-09-01T19:32:23.982Z,62.16
2018-09-01T19:34:52.014Z,62.44
2018-09-01T19:37:20.079Z,61.73
2018-09-01T19:39:48.125Z,62.56
2018-09-01T19:42:16.315Z,63.20
2018-09-01T19:44:44.568Z,62.88
2018-09-01T19:47:12.561Z,63.21
2018-09-01T19:49:40.726Z,64.00
2018-09-01T19:52:08.829Z,64.06
2018-09-01T19:54:37.480Z,64.16
2018-09-01T19:57:06.109Z,64.07
2018-09-01T19:59:34.212Z,64.89
2018-09-01T20:02:03.133Z,64.94
2018-09-01T20:04:32.532Z,65.01
2018-09-01T20:07:00.676Z,65.06
2018-09-01T20:09:30.188Z,64.89
2018-09-01T20:11:58.267Z,65.42
2018-09-01T20:14:26.324Z,65.78
2018-09-01T20:16:54.985Z,65.61
2018-09-01T20:19:23.764Z,66.30
2018-09-01T20:21:51.848Z,66.84
2018-09-01T20:24:19.907Z,66.85
2018-09-01T20:26:47.979Z,67.92
2018-09-01T20:29:16.132Z,67.13
2018-09-01T20:31:44.365Z,67.01
2018-09-01T20:34:12.431Z,68.17
2018-09-01T20:36:40.529Z,67.94
2018-09-01T20:39:09.581Z,68.35
2018-09-01T20:41:37.743Z,68.17
2018-09-01T20:44:05.901Z,68.29
2018-09-01T20:46:34.093Z,68.85
2018-09-01T20:49:02.483Z,68.75
2018-09-01T20:51:30.720Z,69.34
2018-09-01T20:54:00.237Z,68.93
2018-09-01T20:56:29.108Z,69.92
2018-09-01T20:59:06.836Z,69.00
2018-09-01T21:01:36.401Z,69.24
2018-09-01T21:04:05.111Z,69.13
2018-09-01T21:06:34.352Z,69.60
2018-09-01T21:09:02.962Z,70.39
2018-09-01T21:11:31.007Z,70.82
2018-09-01T21:13:59.044Z,70.10
2018-09-01T21:16:27.143Z,70.95
2018-09-01T21:18:55.128Z,70.79
2018-09-01T21:21:23.181Z,70.87
2018-09-01T21:23:51.255Z,71.19
2018-09-01T21:26:19.351Z,70.63
2018-09-01T21:28:47.482Z,70.87
2018-09-01T21:31:15.537Z,70.66
2018-09-01T21:33:43.605Z,70.70
2018-09-01T21:36:11.879Z,70.88
2018-09-01T21:38:40.006Z,71.37
2018-09-01T21:41:08.158Z,71.70
2018-09-01T21:43:36.219Z,71.90
2018-09-01T21:46:04.249Z,71.81
2018-09-01T21:48:32.291Z,72.94
2018-09-01T21:51:00.331Z,73.37
2018-09-01T21:53:28.420Z,72.61
2018-09-01T21:55:56.459Z,73.19
2018-09-01T21:58:24.505Z,73.45
2018-09-01T22:00:52.708Z,73.03
2018-09-01T22:03:21.883Z,73.09
2018-09-01T22:05:49.944Z,73.74
2018-09-01T22:08:18.019Z,72.81
2018-09-01T22:10:46.152Z,73.06
2018-09-01T22:13:14.261Z,73.85
2018-09-01T22:15:42.312Z,73.86
2018-09-01T22:18:10.416Z,74.54
2018-09-01T22:20:38.477Z,73.85
2018-09-01T22:23:06.547Z,74.94
2018-09-01T22:25:34.630Z,74.42
2018-09-01T22:28:02.785Z,74.71
2018-09-01T22:30:30.889Z,73.84
2018-09-01T22:32:58.956Z,73.94
2018-09-01T22:35:27.007Z,73.93
2018-09-01T22:37:55.094Z,74.25
2018-09-01T22:40:24.192Z,73.68
2018-09-01T22:42:52.247Z,73.58
2018-09-01T22:45:20.310Z,73.34
2018-09-01T22:47:48.387Z,73.15
2018-09-01T22:50:16.450Z,73.46
2018-09-01T22:52:44.515Z,73.62
2018-09-01T22:55:12.602Z,73.62
2018-09-01T22:57:40.773Z,73.70
2018-09-01T23:00:08.731Z,73.72
2018-09-01T23:02:36.803Z,73.93
2018-09-01T23:05:04.868Z,73.64
2018-09-01T23:07:33.003Z,73.46
2018-09-01T23:10:01.118Z,73.52
2018-09-01T23:12:29.148Z,73.05
2018-09-01T23:14:57.219Z,73.65
2018-09-01T23:17:25.281Z,73.44
2018-09-01T23:19:53.387Z,73.32
2018-09-01T23:22:21.513Z,73.99
2018-09-01T23:24:49.623Z,74.06
2018-09-01T23:27:17.836Z,73.86
2018-09-01T23:29:45.884Z,74.30
2018-09-01T23:32:13.954Z,74.55
2018-09-01T23:34:42.027Z,74.70
2018-09-01T23:37:10.239Z,75.18
2018-09-01T23:39:38.324Z,75.33
2018-09-01T23:42:06.364Z,75.31
2018-09-01T23:44:34.415Z,74.95
2018-09-01T23:47:02.721Z,75.04
2018-09-01T23:49:30.763Z,74.93
2018-09-01T23:51:58.832Z,75.64
2018-09-01T23:54:26.890Z,75.52
2018-09-01T23:56:54.987Z,76.25
2018-09-01T23:59:23.099Z,76.46
